Time;durP1;ratioP1;P1;durP2;ratioP2;P2;SDS_P1;SDS_P2;PMS_P1;PMS_P2;Temp;Humidity;BMP_temperature;BMP_pressure;BME280_temperature;BME280_humidity;BME280_pressure;Samples;Min_cycle;Max_cycle;Signal;HPM_P1;HPM_P2
2022/11/29 00:00:05;;;;;;;1.13;0.35;;;25.30;99.90;;;;;;5084860;28;20224;-76
2022/11/29 00:02:36;;;;;;;0.80;0.40;;;25.40;99.90;;;;;;5082570;28;20549;-80
2022/11/29 00:05:08;;;;;;;3.00;0.40;;;25.60;99.90;;;;;;5086162;28;20283;-76
2022/11/29 00:07:41;;;;;;;1.73;0.30;;;25.60;99.90;;;;;;5089521;28;20212;-77
2022/11/29 00:10:12;;;;;;;1.05;0.30;;;25.70;99.90;;;;;;5087314;28;20197;-75
2022/11/29 00:12:42;;;;;;;1.48;0.30;;;25.70;99.90;;;;;;5091508;28;20539;-75
2022/11/29 00:15:14;;;;;;;1.95;0.32;;;25.80;99.90;;;;;;5091377;28;20242;-78
2022/11/29 00:17:45;;;;;;;2.88;0.50;;;25.80;99.90;;;;;;5086189;28;20206;-75
2022/11/29 00:20:16;;;;;;;1.13;0.32;;;25.40;99.90;;;;;;5092716;28;20206;-78
2022/11/29 00:22:51;;;;;;;2.20;0.50;;;25.30;99.90;;;;;;5085687;28;20674;-76
2022/11/29 00:25:22;;;;;;;1.40;0.40;;;25.30;99.90;;;;;;5081424;28;20689;-76
2022/11/29 00:27:53;;;;;;;1.05;0.30;;;25.60;99.90;;;;;;5081882;28;20209;-74
2022/11/29 00:30:24;;;;;;;1.45;0.50;;;25.70;99.90;;;;;;5087092;28;20274;-74
2022/11/29 00:32:55;;;;;;;1.48;0.60;;;25.70;99.90;;;;;;5100047;28;20191;-74
2022/11/29 00:35:26;;;;;;;0.93;0.45;;;25.60;99.90;;;;;;5112281;28;20194;-75
2022/11/29 00:37:59;;;;;;;1.27;0.40;;;25.60;99.90;;;;;;5093742;28;20198;-73
2022/11/29 00:40:31;;;;;;;2.00;1.13;;;25.50;99.90;;;;;;5091220;28;20241;-76
2022/11/29 00:43:02;;;;;;;0.50;0.30;;;25.40;99.90;;;;;;5090632;28;20195;-74
2022/11/29 00:45:33;;;;;;;1.88;0.40;;;25.40;99.90;;;;;;5087817;28;20192;-74
2022/11/29 00:48:04;;;;;;;1.98;0.38;;;25.40;99.90;;;;;;5095779;28;20280;-74
2022/11/29 00:50:35;;;;;;;2.28;0.40;;;25.60;99.90;;;;;;5083750;28;20246;-76
2022/11/29 00:53:08;;;;;;;1.08;0.30;;;25.60;99.90;;;;;;5103313;28;20191;-75
2022/11/29 00:55:38;;;;;;;2.33;0.40;;;25.50;99.90;;;;;;5092109;28;20204;-75
2022/11/29 00:58:10;;;;;;;1.73;0.60;;;25.50;99.90;;;;;;5095478;28;20196;-78
2022/11/29 01:00:41;;;;;;;1.48;0.32;;;25.60;99.90;;;;;;5103988;28;20720;-72
2022/11/29 01:03:13;;;;;;;2.25;0.30;;;25.40;99.90;;;;;;5104532;28;20265;-75
2022/11/29 01:05:43;;;;;;;1.42;0.30;;;25.40;99.90;;;;;;5098412;28;20631;-75
2022/11/29 01:08:17;;;;;;;1.00;0.40;;;25.40;99.90;;;;;;5095517;28;20212;-74
2022/11/29 01:10:47;;;;;;;0.75;0.35;;;25.30;99.90;;;;;;5099695;28;20274;-75
2022/11/29 01:13:19;;;;;;;7.82;1.27;;;25.30;99.90;;;;;;5096953;28;20200;-75
2022/11/29 01:15:58;;;;;;;0.60;0.20;;;25.40;99.90;;;;;;5097061;28;20319;-74
2022/11/29 01:18:33;;;;;;;1.45;0.20;;;25.40;99.90;;;;;;5106436;28;20188;-74
2022/11/29 01:21:09;;;;;;;0.68;0.20;;;25.10;99.90;;;;;;5097241;28;20219;-73
2022/11/29 01:23:42;;;;;;;0.73;0.30;;;24.90;99.90;;;;;;5107101;28;20199;-73
2022/11/29 01:26:19;;;;;;;0.47;0.20;;;25.00;99.90;;;;;;5106636;28;20195;-74
2022/11/29 01:28:53;;;;;;;3.22;0.43;;;25.20;99.90;;;;;;5104672;28;20220;-73
2022/11/29 01:31:26;;;;;;;0.20;0.20;;;25.20;99.90;;;;;;5109305;28;20203;-73
2022/11/29 01:33:59;;;;;;;3.20;0.57;;;25.20;99.90;;;;;;5099017;28;20282;-71
2022/11/29 01:36:30;;;;;;;0.43;0.30;;;25.20;99.90;;;;;;5095442;28;20188;-74
2022/11/29 01:39:05;;;;;;;0.47;0.20;;;25.20;99.90;;;;;;5094841;28;20200;-76
2022/11/29 01:41:38;;;;;;;1.42;0.30;;;25.20;99.90;;;;;;5086579;28;20188;-77
2022/11/29 01:44:29;;;;;;;1.73;0.45;;;25.00;99.90;;;;;;5095926;28;20648;-77
2022/11/29 01:47:00;;;;;;;6.50;2.33;;;24.90;99.90;;;;;;5093886;28;20206;-76
2022/11/29 01:49:34;;;;;;;3.10;1.38;;;25.00;99.90;;;;;;5090074;28;20319;-76
2022/11/29 01:52:07;;;;;;;1.58;0.60;;;24.90;99.90;;;;;;5092624;28;20282;-75
2022/11/29 01:54:44;;;;;;;0.75;0.30;;;24.90;99.90;;;;;;5089215;28;20211;-74
2022/11/29 01:57:16;;;;;;;0.20;0.20;;;24.70;99.90;;;;;;5100647;28;20609;-75
2022/11/29 01:59:52;;;;;;;0.57;0.30;;;24.80;99.90;;;;;;5094354;28;20196;-75
2022/11/29 02:02:26;;;;;;;1.63;0.20;;;24.80;99.90;;;;;;5107121;28;20195;-76
2022/11/29 02:04:59;;;;;;;0.30;0.20;;;24.70;99.90;;;;;;5097566;28;20278;-75
2022/11/29 02:07:29;;;;;;;1.00;0.20;;;24.70;99.90;;;;;;5095485;28;20739;-75
2022/11/29 02:10:05;;;;;;;1.85;0.52;;;24.70;99.90;;;;;;5102879;28;20188;-75
2022/11/29 02:12:44;;;;;;;0.50;0.20;;;24.80;99.90;;;;;;5095289;28;20210;-77
2022/11/29 02:15:29;;;;;;;4.05;0.75;;;24.70;99.90;;;;;;5087932;28;20254;-77
2022/11/29 02:18:10;;;;;;;3.03;0.40;;;24.60;99.90;;;;;;5104161;28;20707;-76
2022/11/29 02:21:03;;;;;;;1.05;0.40;;;24.60;99.90;;;;;;5084321;28;20282;-75
2022/11/29 02:23:59;;;;;;;1.75;0.30;;;24.70;99.90;;;;;;5092426;28;20718;-75
2022/11/29 02:26:54;;;;;;;0.75;0.30;;;24.60;99.90;;;;;;5098327;28;20270;-75
2022/11/29 02:30:12;;;;;;;0.93;0.40;;;24.80;99.90;;;;;;5062480;28;20226;-75
2022/11/29 02:33:22;;;;;;;1.38;0.30;;;24.70;99.90;;;;;;5081544;28;20307;-79
2022/11/29 02:36:21;;;;;;;2.20;0.35;;;24.70;99.90;;;;;;5071621;28;20192;-74
2022/11/29 02:39:21;;;;;;;2.22;0.50;;;24.80;99.90;;;;;;5097102;28;20720;-74
2022/11/29 02:42:47;;;;;;;0.70;0.30;;;24.80;99.90;;;;;;5069436;28;20294;-75
2022/11/29 02:45:39;;;;;;;0.82;0.30;;;24.60;99.90;;;;;;5050869;28;20210;-76
2022/11/29 02:48:24;;;;;;;1.38;0.40;;;24.50;99.90;;;;;;5096853;28;20315;-76
2022/11/29 02:51:01;;;;;;;1.85;0.50;;;24.30;99.90;;;;;;5102545;28;20187;-73
2022/11/29 02:53:39;;;;;;;0.40;0.20;;;24.20;99.90;;;;;;5099473;28;20207;-74
2022/11/29 02:56:17;;;;;;;3.30;0.30;;;24.20;99.90;;;;;;5091639;28;20223;-72
2022/11/29 02:58:52;;;;;;;1.13;0.30;;;24.00;99.90;;;;;;5093598;28;20192;-77
2022/11/29 03:01:28;;;;;;;0.70;0.30;;;23.90;99.90;;;;;;5105042;28;20206;-79
2022/11/29 03:04:06;;;;;;;0.65;0.20;;;23.70;99.90;;;;;;5092359;28;20246;-79
2022/11/29 03:06:45;;;;;;;1.65;0.20;;;23.60;99.90;;;;;;5092884;28;20188;-74
2022/11/29 03:09:27;;;;;;;1.83;0.63;;;23.60;99.90;;;;;;5090809;28;20216;-78
2022/11/29 03:12:07;;;;;;;2.33;0.40;;;23.70;99.90;;;;;;5090734;28;20276;-78
2022/11/29 03:14:48;;;;;;;1.38;0.50;;;23.60;99.90;;;;;;5103193;27;20191;-75
2022/11/29 03:17:30;;;;;;;1.02;0.50;;;23.60;99.90;;;;;;5094792;28;20279;-80
2022/11/29 03:20:14;;;;;;;2.03;0.43;;;23.60;99.90;;;;;;5101981;28;20263;-78
2022/11/29 03:22:57;;;;;;;1.23;0.40;;;23.40;99.90;;;;;;5100337;28;20191;-75
2022/11/29 03:25:34;;;;;;;1.73;0.50;;;23.50;99.90;;;;;;5095976;28;20188;-76
2022/11/29 03:28:12;;;;;;;2.30;1.15;;;23.50;99.90;;;;;;5092407;28;20237;-77
2022/11/29 03:30:50;;;;;;;3.17;0.55;;;23.30;99.90;;;;;;5101058;28;20199;-76
2022/11/29 03:33:29;;;;;;;1.35;0.40;;;23.10;99.90;;;;;;5095112;28;20241;-76
2022/11/29 03:36:07;;;;;;;1.63;0.40;;;23.30;99.90;;;;;;5086916;28;20199;-73
2022/11/29 03:38:42;;;;;;;1.35;0.45;;;23.10;99.90;;;;;;5093123;28;20321;-73
2022/11/29 03:41:22;;;;;;;0.65;0.20;;;23.10;99.90;;;;;;5096891;28;20200;-74
2022/11/29 03:43:58;;;;;;;0.93;0.40;;;23.00;99.90;;;;;;5088280;28;20223;-74
2022/11/29 03:46:35;;;;;;;0.43;0.30;;;22.90;99.90;;;;;;5096700;28;20714;-78
2022/11/29 03:49:10;;;;;;;0.82;0.30;;;22.80;99.90;;;;;;5103474;28;20230;-76
2022/11/29 03:51:53;;;;;;;0.65;0.32;;;22.70;99.90;;;;;;5094248;28;20188;-79
2022/11/29 03:54:30;;;;;;;1.25;0.50;;;22.70;99.90;;;;;;5103583;28;20185;-82
2022/11/29 03:57:03;;;;;;;4.18;0.40;;;22.70;99.90;;;;;;5108993;28;20194;-78
2022/11/29 03:59:52;;;;;;;2.22;0.30;;;22.90;99.90;;;;;;5087780;28;20200;-80
2022/11/29 04:02:59;;;;;;;1.75;0.50;;;22.90;99.90;;;;;;5102718;28;20199;-78
2022/11/29 04:06:05;;;;;;;1.27;0.43;;;22.80;99.90;;;;;;5105087;28;20599;-72
2022/11/29 04:09:31;;;;;;;2.83;0.43;;;22.80;99.90;;;;;;5092027;28;20311;-73
2022/11/29 04:12:34;;;;;;;0.40;0.40;;;22.50;99.90;;;;;;5026624;28;20206;-74
2022/11/29 04:15:40;;;;;;;0.40;0.40;;;22.40;99.90;;;;;;5018712;28;20226;-78
2022/11/29 04:18:37;;;;;;;2.88;0.40;;;22.40;99.90;;;;;;5087223;28;20194;-74
2022/11/29 04:21:33;;;;;;;1.70;0.30;;;22.30;99.90;;;;;;5052907;28;20572;-77
2022/11/29 04:24:32;;;;;;;1.75;0.60;;;22.40;99.90;;;;;;5083981;28;20196;-79
2022/11/29 04:27:31;;;;;;;3.42;1.73;;;22.50;99.90;;;;;;5087352;28;20219;-75
2022/11/29 04:30:20;;;;;;;2.47;0.80;;;22.50;99.90;;;;;;5092082;28;20215;-72
2022/11/29 04:33:44;;;;;;;5.30;0.82;;;22.60;99.90;;;;;;5103261;28;20202;-75
2022/11/29 04:36:57;;;;;;;2.58;0.60;;;22.60;99.90;;;;;;5091246;28;20211;-75
2022/11/29 04:39:43;;;;;;;0.95;0.50;;;22.60;99.90;;;;;;5094329;28;20287;-76
2022/11/29 04:42:46;;;;;;;2.75;0.73;;;22.60;99.90;;;;;;5105363;28;20241;-75
2022/11/29 04:45:53;;;;;;;2.92;0.77;;;22.60;99.90;;;;;;5093257;28;20184;-74
2022/11/29 04:48:43;;;;;;;3.25;0.65;;;22.60;99.90;;;;;;5086471;28;20220;-75
2022/11/29 04:51:22;;;;;;;2.17;0.70;;;22.80;99.90;;;;;;5099367;28;20196;-76
2022/11/29 04:54:00;;;;;;;6.43;0.98;;;23.00;99.90;;;;;;5090911;28;20188;-74
2022/11/29 04:56:40;;;;;;;5.55;0.80;;;23.00;99.90;;;;;;5095817;28;20238;-75
2022/11/29 04:59:20;;;;;;;4.05;0.90;;;22.90;99.90;;;;;;5083702;28;20206;-75
2022/11/29 05:02:04;;;;;;;5.32;0.90;;;22.90;99.90;;;;;;5092252;28;20667;-77
2022/11/29 05:04:49;;;;;;;6.43;1.20;;;22.70;99.90;;;;;;5090295;28;20196;-74
2022/11/29 05:07:30;;;;;;;7.30;1.08;;;22.40;99.90;;;;;;5087594;28;20202;-77
2022/11/29 05:10:15;;;;;;;6.90;1.00;;;22.10;99.90;;;;;;5091831;28;20671;-76
2022/11/29 05:12:56;;;;;;;7.55;0.90;;;22.10;99.90;;;;;;5092655;28;20191;-75
2022/11/29 05:15:54;;;;;;;4.53;0.90;;;22.10;99.90;;;;;;5082845;28;20682;-72
2022/11/29 05:18:37;;;;;;;2.92;0.80;;;21.90;99.90;;;;;;5092617;28;20590;-73
2022/11/29 05:21:16;;;;;;;6.43;1.08;;;21.80;99.90;;;;;;5093203;28;20606;-73
2022/11/29 05:23:56;;;;;;;4.40;1.02;;;21.90;99.90;;;;;;5098222;28;20196;-73
2022/11/29 05:26:35;;;;;;;2.78;0.73;;;22.10;99.90;;;;;;5093886;28;20210;-74
2022/11/29 05:29:11;;;;;;;7.22;1.10;;;22.20;99.90;;;;;;5094840;28;20212;-75
2022/11/29 05:32:07;;;;;;;4.25;0.68;;;22.50;99.90;;;;;;5087534;28;20196;-74
2022/11/29 05:35:02;;;;;;;6.35;1.10;;;22.70;99.90;;;;;;5081422;28;20686;-74
2022/11/29 05:37:44;;;;;;;3.55;0.93;;;22.60;99.90;;;;;;5093186;28;20189;-74
2022/11/29 05:40:42;;;;;;;5.28;1.08;;;22.50;99.90;;;;;;5094648;28;20196;-74
2022/11/29 05:43:31;;;;;;;4.63;0.90;;;22.50;99.90;;;;;;5093255;28;20204;-73
2022/11/29 05:46:09;;;;;;;5.22;0.80;;;22.70;99.90;;;;;;5095004;28;20673;-74
2022/11/29 05:48:48;;;;;;;8.27;1.23;;;22.70;99.90;;;;;;5091757;28;20228;-76
2022/11/29 05:51:23;;;;;;;5.25;1.10;;;22.60;99.90;;;;;;5095163;28;20198;-74
2022/11/29 05:54:05;;;;;;;4.10;0.82;;;22.40;99.90;;;;;;5094800;28;20188;-77
2022/11/29 05:56:48;;;;;;;8.30;1.13;;;22.40;99.90;;;;;;5090002;28;20273;-77
2022/11/29 05:59:25;;;;;;;6.63;1.02;;;22.20;99.90;;;;;;5094059;28;20275;-75
2022/11/29 06:02:08;;;;;;;7.82;1.05;;;21.90;99.90;;;;;;5095766;28;20184;-72
2022/11/29 06:04:51;;;;;;;8.70;1.25;;;21.60;99.90;;;;;;5089354;28;20196;-75
2022/11/29 06:07:26;;;;;;;7.30;1.10;;;21.60;99.90;;;;;;5094391;28;20199;-76
2022/11/29 06:10:02;;;;;;;7.03;0.98;;;21.60;99.90;;;;;;5092123;28;20212;-75
2022/11/29 06:12:36;;;;;;;5.68;1.20;;;21.50;99.90;;;;;;5095222;28;20215;-77
2022/11/29 06:15:44;;;;;;;7.93;1.15;;;21.50;99.90;;;;;;5093883;28;20234;-74
2022/11/29 06:18:33;;;;;;;6.68;1.10;;;21.50;99.90;;;;;;5092716;28;20200;-76
2022/11/29 06:21:29;;;;;;;6.50;1.13;;;21.50;99.90;;;;;;5092992;28;20279;-74
2022/11/29 06:24:21;;;;;;;11.80;1.15;;;21.50;99.90;;;;;;5088688;28;20201;-73
2022/11/29 06:27:15;;;;;;;4.32;1.10;;;21.50;99.90;;;;;;5084740;28;20188;-74
2022/11/29 06:29:53;;;;;;;7.03;1.27;;;21.10;99.90;;;;;;5089153;28;20230;-78
2022/11/29 06:32:36;;;;;;;4.53;0.90;;;20.80;99.90;;;;;;5091494;28;20198;-73
2022/11/29 06:35:10;;;;;;;3.97;0.90;;;20.60;99.90;;;;;;5101386;28;20195;-76
2022/11/29 06:37:44;;;;;;;4.22;0.95;;;20.40;99.90;;;;;;5091322;28;20215;-75
2022/11/29 06:40:17;;;;;;;7.40;1.17;;;20.30;99.90;;;;;;5085551;28;20207;-74
2022/11/29 06:42:49;;;;;;;7.95;0.95;;;20.30;99.90;;;;;;5093653;28;20242;-76
2022/11/29 06:45:20;;;;;;;10.48;1.90;;;20.20;99.90;;;;;;5089661;28;20224;-75
2022/11/29 06:47:59;;;;;;;5.20;0.90;;;20.10;99.90;;;;;;5088574;28;20220;-73
2022/11/29 06:50:40;;;;;;;9.73;1.20;;;20.00;99.90;;;;;;5090143;28;20679;-76
2022/11/29 06:53:18;;;;;;;5.85;1.00;;;19.90;99.90;;;;;;5094955;28;20662;-75
2022/11/29 06:55:54;;;;;;;4.25;1.10;;;19.90;99.90;;;;;;5090883;28;20655;-74
2022/11/29 06:58:39;;;;;;;8.55;1.30;;;19.90;99.90;;;;;;5102505;28;20286;-73
2022/11/29 07:01:21;;;;;;;7.47;1.50;;;19.90;99.90;;;;;;5096367;28;20227;-72
2022/11/29 07:04:19;;;;;;;5.25;1.23;;;19.90;99.90;;;;;;5095529;28;20269;-74
2022/11/29 07:06:50;;;;;;;6.75;1.42;;;19.90;99.90;;;;;;5092095;28;20252;-72
2022/11/29 07:09:24;;;;;;;11.60;1.50;;;20.00;99.90;;;;;;5088373;28;20312;-73
2022/11/29 07:11:55;;;;;;;6.18;1.13;;;20.10;99.90;;;;;;5088667;28;20197;-73
2022/11/29 07:14:26;;;;;;;6.82;1.35;;;20.30;99.90;;;;;;5101415;28;20195;-74
2022/11/29 07:17:06;;;;;;;9.18;1.23;;;20.40;99.90;;;;;;5096307;28;20238;-73
2022/11/29 07:19:46;;;;;;;7.93;1.20;;;20.50;99.90;;;;;;5094695;28;20199;-75
2022/11/29 07:22:39;;;;;;;9.40;1.05;;;20.40;99.90;;;;;;5089383;28;20196;-73
2022/11/29 07:25:22;;;;;;;6.70;1.13;;;20.20;99.90;;;;;;5091723;28;20206;-74
2022/11/29 07:27:59;;;;;;;8.38;1.38;;;20.00;99.90;;;;;;5093827;28;20655;-72
2022/11/29 07:30:36;;;;;;;7.35;1.30;;;20.00;99.90;;;;;;5093694;28;20756;-73
2022/11/29 07:33:15;;;;;;;8.45;1.20;;;19.90;99.90;;;;;;5088444;28;20238;-72
2022/11/29 07:35:55;;;;;;;8.68;1.42;;;19.80;99.90;;;;;;5091556;28;20196;-72
2022/11/29 07:38:32;;;;;;;8.73;1.40;;;19.80;99.90;;;;;;5097997;28;20287;-75
2022/11/29 07:41:08;;;;;;;11.32;1.60;;;19.80;99.90;;;;;;5094064;28;20200;-73
2022/11/29 07:43:48;;;;;;;7.50;1.30;;;19.80;99.90;;;;;;5090083;28;20203;-74
2022/11/29 07:46:19;;;;;;;9.00;1.10;;;19.70;99.90;;;;;;5093889;28;20278;-75
2022/11/29 07:48:50;;;;;;;8.45;1.30;;;19.70;99.90;;;;;;5093754;28;20766;-74
2022/11/29 07:51:25;;;;;;;5.10;1.23;;;19.60;99.90;;;;;;5088247;28;20272;-74
2022/11/29 07:53:56;;;;;;;5.45;1.38;;;19.60;99.90;;;;;;5097784;28;20611;-74
2022/11/29 07:56:27;;;;;;;8.73;1.20;;;19.60;99.90;;;;;;5089026;28;20180;-75
2022/11/29 07:58:58;;;;;;;5.47;1.13;;;19.60;99.90;;;;;;5095182;28;20192;-74
2022/11/29 08:01:28;;;;;;;9.85;1.35;;;19.60;99.90;;;;;;5083853;28;20641;-75
2022/11/29 08:03:59;;;;;;;8.15;1.50;;;19.50;99.90;;;;;;5105992;28;20283;-74
2022/11/29 08:06:32;;;;;;;6.50;1.10;;;19.50;99.90;;;;;;5104137;28;20200;-74
2022/11/29 08:09:05;;;;;;;6.35;1.23;;;19.40;99.90;;;;;;5087472;28;21913;-73
2022/11/29 08:11:36;;;;;;;6.78;1.50;;;19.40;99.90;;;;;;5094176;28;20199;-73
2022/11/29 08:14:07;;;;;;;6.32;1.15;;;19.30;99.90;;;;;;5092437;28;20640;-75
2022/11/29 08:16:38;;;;;;;6.50;1.60;;;19.20;99.90;;;;;;5092191;28;20232;-74
2022/11/29 08:19:12;;;;;;;7.80;1.70;;;19.10;99.90;;;;;;5092199;28;20203;-73
2022/11/29 08:21:47;;;;;;;11.02;1.95;;;19.10;99.90;;;;;;5091351;28;20409;-74
2022/11/29 08:24:18;;;;;;;8.00;1.35;;;19.00;99.90;;;;;;5091688;28;20240;-74
2022/11/29 08:26:48;;;;;;;8.98;1.35;;;19.00;99.90;;;;;;5084479;28;20270;-74
2022/11/29 08:29:19;;;;;;;11.77;3.00;;;18.90;99.90;;;;;;5087606;28;20495;-74
2022/11/29 08:31:54;;;;;;;10.85;1.40;;;18.90;99.90;;;;;;5089813;28;20562;-74
2022/11/29 08:34:26;;;;;;;4.90;1.13;;;18.90;99.90;;;;;;5097466;28;20191;-73
2022/11/29 08:36:59;;;;;;;8.57;1.45;;;18.90;99.90;;;;;;5087723;28;20192;-75
2022/11/29 08:39:31;;;;;;;9.32;1.33;;;18.90;99.90;;;;;;5083505;28;20234;-73
2022/11/29 08:42:01;;;;;;;9.25;1.30;;;18.90;99.90;;;;;;5095120;28;20205;-74
2022/11/29 08:44:32;;;;;;;7.07;1.10;;;18.90;99.90;;;;;;5096024;28;20196;-75
2022/11/29 08:50:02;;;;;;;7.85;1.25;;;18.90;99.90;;;;;;5093055;28;20290;-74
2022/11/29 08:55:25;;;;;;;9.30;1.60;;;18.90;99.90;;;;;;5084115;28;20199;-74
2022/11/29 08:58:02;;;;;;;8.13;1.40;;;18.90;99.90;;;;;;5091767;28;20196;-75
2022/11/29 09:00:34;;;;;;;5.85;1.38;;;18.90;99.90;;;;;;5089685;28;20200;-75
2022/11/29 09:05:52;;;;;;;6.97;1.20;;;18.80;99.90;;;;;;5091436;28;20191;-75
2022/11/29 09:08:25;;;;;;;8.32;1.55;;;18.80;99.90;;;;;;5092255;28;20197;-74
2022/11/29 09:10:55;;;;;;;6.68;1.30;;;18.80;99.90;;;;;;5100051;28;20214;-74
2022/11/29 09:13:26;;;;;;;12.45;1.35;;;18.80;99.90;;;;;;5097750;28;20188;-73
2022/11/29 09:15:57;;;;;;;7.32;1.25;;;18.80;99.90;;;;;;5094503;28;20599;-73
2022/11/29 09:18:28;;;;;;;8.15;1.40;;;18.80;99.90;;;;;;5105075;28;20210;-74
2022/11/29 09:20:59;;;;;;;16.55;1.70;;;18.80;99.90;;;;;;5100990;28;20253;-75
2022/11/29 09:23:33;;;;;;;7.30;1.38;;;18.80;99.90;;;;;;5095462;28;20279;-75
2022/11/29 09:26:04;;;;;;;10.15;1.45;;;18.70;99.90;;;;;;5089201;28;20231;-75
2022/11/29 09:28:36;;;;;;;12.43;1.70;;;18.80;99.90;;;;;;5095761;28;20195;-75
2022/11/29 09:31:11;;;;;;;6.38;1.83;;;18.80;99.90;;;;;;5096556;27;20223;-74
2022/11/29 09:33:44;;;;;;;7.70;1.35;;;18.80;99.90;;;;;;5091523;28;20194;-75
2022/11/29 09:36:15;;;;;;;9.35;1.80;;;18.70;99.90;;;;;;5095853;28;20203;-75
2022/11/29 09:38:48;;;;;;;12.27;2.10;;;18.70;99.90;;;;;;5096111;28;20196;-75
2022/11/29 09:41:50;;;;;;;8.25;1.70;;;18.70;99.90;;;;;;5099557;28;20195;-75
2022/11/29 09:44:30;;;;;;;10.27;1.95;;;18.70;99.90;;;;;;5064532;28;20221;-79
2022/11/29 09:47:09;;;;;;;13.20;1.90;;;18.60;99.90;;;;;;5096245;28;20219;-76
2022/11/29 09:49:59;;;;;;;9.00;1.98;;;18.60;99.90;;;;;;5098018;28;20219;-79
2022/11/29 09:52:44;;;;;;;10.45;1.60;;;18.60;99.90;;;;;;5093171;28;20207;-75
2022/11/29 09:55:37;;;;;;;11.32;1.73;;;18.60;99.90;;;;;;5094162;28;20197;-76
2022/11/29 09:58:12;;;;;;;8.00;1.50;;;18.50;99.90;;;;;;5095933;28;20553;-74
2022/11/29 10:00:53;;;;;;;10.15;1.77;;;18.60;99.90;;;;;;5109869;28;20198;-74
2022/11/29 10:03:30;;;;;;;25.10;11.55;;;18.60;99.90;;;;;;5086632;28;20315;-73
2022/11/29 10:06:05;;;;;;;6.85;1.65;;;18.60;99.90;;;;;;5096815;28;20283;-74
2022/11/29 10:08:42;;;;;;;10.70;1.50;;;18.50;99.90;;;;;;5095813;28;20202;-75
2022/11/29 10:11:21;;;;;;;8.35;1.60;;;18.60;99.90;;;;;;5091685;28;20216;-74
2022/11/29 10:13:56;;;;;;;7.78;1.60;;;18.60;99.90;;;;;;5098129;28;20210;-74
2022/11/29 10:16:39;;;;;;;6.63;1.52;;;18.60;99.90;;;;;;5101845;28;20237;-74
2022/11/29 10:19:20;;;;;;;10.43;1.42;;;18.50;99.90;;;;;;5098993;28;20204;-73
2022/11/29 10:22:02;;;;;;;9.40;1.40;;;18.50;99.90;;;;;;5098747;28;20275;-74
2022/11/29 10:24:35;;;;;;;10.45;1.98;;;18.50;99.90;;;;;;5093541;28;20232;-75
2022/11/29 10:27:16;;;;;;;10.48;1.77;;;18.50;99.90;;;;;;5096622;28;20204;-75
2022/11/29 10:29:50;;;;;;;9.75;1.40;;;18.50;99.90;;;;;;5102468;28;20223;-75
2022/11/29 10:32:22;;;;;;;8.15;1.55;;;18.50;99.90;;;;;;5098748;28;20188;-74
2022/11/29 10:34:56;;;;;;;13.35;1.98;;;18.50;99.90;;;;;;5104000;28;20180;-76
2022/11/29 10:37:31;;;;;;;11.25;1.55;;;18.50;99.90;;;;;;5098333;28;20645;-75
2022/11/29 10:40:06;;;;;;;7.68;1.23;;;18.50;99.90;;;;;;5090116;28;20184;-74
2022/11/29 10:42:52;;;;;;;9.32;1.58;;;18.50;99.90;;;;;;5094475;28;20198;-77
2022/11/29 10:45:29;;;;;;;11.75;1.50;;;18.50;99.90;;;;;;5087394;28;20286;-75
2022/11/29 10:48:05;;;;;;;9.60;1.40;;;18.50;99.90;;;;;;5095665;28;20683;-74
2022/11/29 10:50:39;;;;;;;6.32;1.33;;;18.50;99.90;;;;;;5102219;28;20267;-76
2022/11/29 10:53:12;;;;;;;7.75;1.60;;;18.50;99.90;;;;;;5105686;28;20245;-76
2022/11/29 10:55:50;;;;;;;6.57;1.30;;;18.50;99.90;;;;;;5096764;28;20659;-75
2022/11/29 10:58:24;;;;;;;10.40;1.92;;;18.50;99.90;;;;;;5092767;28;20674;-76
2022/11/29 11:00:59;;;;;;;6.68;1.40;;;18.50;99.90;;;;;;5099992;28;20205;-74
2022/11/29 11:03:37;;;;;;;7.18;1.50;;;18.50;99.90;;;;;;5098088;28;20651;-75
2022/11/29 11:06:13;;;;;;;8.80;1.77;;;18.50;99.90;;;;;;5101817;28;20734;-75
2022/11/29 11:08:47;;;;;;;8.48;1.20;;;18.50;99.90;;;;;;5105907;28;20196;-75
2022/11/29 11:11:25;;;;;;;9.60;1.50;;;18.50;99.90;;;;;;5106967;28;20681;-74
2022/11/29 11:14:19;;;;;;;8.52;1.60;;;18.40;99.90;;;;;;5106556;28;20196;-74
2022/11/29 11:16:51;;;;;;;9.57;1.20;;;18.40;99.90;;;;;;5088630;28;20228;-73
2022/11/29 11:19:30;;;;;;;7.90;1.40;;;18.50;99.90;;;;;;5093403;28;20283;-75
2022/11/29 11:22:02;;;;;;;12.55;1.50;;;18.40;99.90;;;;;;5090185;28;20655;-74
2022/11/29 11:24:35;;;;;;;8.13;1.60;;;18.40;99.90;;;;;;5107427;28;20199;-75
2022/11/29 11:27:07;;;;;;;6.15;1.20;;;18.40;99.90;;;;;;5112419;28;20190;-75
2022/11/29 11:29:41;;;;;;;9.80;1.88;;;18.40;99.90;;;;;;5087169;28;20199;-75
2022/11/29 11:32:22;;;;;;;6.35;1.45;;;18.40;99.90;;;;;;5113266;28;20274;-74
2022/11/29 11:34:56;;;;;;;7.65;1.20;;;18.40;99.90;;;;;;5094744;28;20204;-75
2022/11/29 11:37:29;;;;;;;10.15;1.48;;;18.40;99.90;;;;;;5096518;28;20191;-75
2022/11/29 11:40:02;;;;;;;9.18;1.70;;;18.40;99.90;;;;;;5093069;28;20332;-75
2022/11/29 11:42:41;;;;;;;6.07;1.20;;;18.40;99.90;;;;;;5110437;28;20199;-74
2022/11/29 11:45:34;;;;;;;10.90;1.63;;;18.40;99.90;;;;;;5086926;28;20275;-75
2022/11/29 11:48:13;;;;;;;8.90;1.17;;;18.40;99.90;;;;;;5097847;28;20215;-74
2022/11/29 11:50:48;;;;;;;7.72;1.40;;;18.40;99.90;;;;;;5091630;28;20207;-74
2022/11/29 11:53:25;;;;;;;4.10;0.93;;;18.40;99.90;;;;;;5096508;28;20187;-74
2022/11/29 11:56:01;;;;;;;6.75;1.30;;;18.40;99.90;;;;;;5101410;28;20636;-75
2022/11/29 11:58:36;;;;;;;10.13;1.25;;;18.40;99.90;;;;;;5107901;28;20184;-75
2022/11/29 12:01:29;;;;;;;5.32;1.00;;;18.40;99.90;;;;;;5101787;28;20179;-73
2022/11/29 12:04:07;;;;;;;4.55;1.25;;;18.40;99.90;;;;;;5099467;28;20193;-73
2022/11/29 12:06:46;;;;;;;7.00;1.40;;;18.40;99.90;;;;;;5098269;28;20196;-72
2022/11/29 12:09:39;;;;;;;8.10;1.20;;;18.40;99.90;;;;;;5093981;28;20677;-73
2022/11/29 12:12:17;;;;;;;6.00;1.20;;;18.40;99.90;;;;;;5098444;28;20700;-75
2022/11/29 12:14:57;;;;;;;6.22;1.08;;;18.40;99.90;;;;;;5091944;28;20552;-75
2022/11/29 12:17:37;;;;;;;10.05;1.52;;;18.40;99.90;;;;;;5093744;28;20195;-74
2022/11/29 12:20:19;;;;;;;8.95;1.52;;;18.40;99.90;;;;;;5094932;28;20287;-74
2022/11/29 12:23:04;;;;;;;9.30;1.20;;;18.40;99.90;;;;;;5103825;28;20199;-75
2022/11/29 12:25:41;;;;;;;5.57;1.27;;;18.40;99.90;;;;;;5090935;28;20565;-76
2022/11/29 12:28:14;;;;;;;6.72;1.10;;;18.40;99.90;;;;;;5092914;28;20198;-76
2022/11/29 12:30:54;;;;;;;6.07;1.20;;;18.40;99.90;;;;;;5106861;28;20212;-75
2022/11/29 12:33:36;;;;;;;10.25;1.40;;;18.40;99.90;;;;;;5094124;28;20191;-76
2022/11/29 12:36:23;;;;;;;7.63;1.15;;;18.40;99.90;;;;;;5082610;28;20259;-77
2022/11/29 12:39:13;;;;;;;8.07;1.20;;;18.30;99.90;;;;;;5094987;28;20907;-75
2022/11/29 12:41:53;;;;;;;5.13;1.00;;;18.30;99.90;;;;;;5086348;28;20224;-78
2022/11/29 12:44:47;;;;;;;4.60;1.05;;;18.30;99.90;;;;;;5096097;28;20385;-78
2022/11/29 12:47:26;;;;;;;5.78;1.20;;;18.30;99.90;;;;;;5100265;28;20225;-76
2022/11/29 12:50:13;;;;;;;8.55;1.13;;;18.30;99.90;;;;;;5097550;28;20270;-75
2022/11/29 12:52:52;;;;;;;7.50;1.02;;;18.30;99.90;;;;;;5094379;28;20193;-77
2022/11/29 12:55:28;;;;;;;6.28;1.20;;;18.30;99.90;;;;;;5101131;28;20608;-75
2022/11/29 12:58:09;;;;;;;7.97;1.40;;;18.30;99.90;;;;;;5102418;28;20205;-77
2022/11/29 13:00:48;;;;;;;11.02;1.50;;;18.30;99.90;;;;;;5094542;28;20188;-77
2022/11/29 13:03:25;;;;;;;6.85;1.15;;;18.20;99.90;;;;;;5096120;28;20278;-79
2022/11/29 13:06:10;;;;;;;8.93;1.92;;;18.30;99.90;;;;;;5096923;27;20195;-78
2022/11/29 13:08:55;;;;;;;8.43;1.30;;;18.30;99.90;;;;;;5102748;28;20620;-78
2022/11/29 13:11:30;;;;;;;9.60;1.73;;;18.20;99.90;;;;;;5096736;28;20231;-75
2022/11/29 13:14:09;;;;;;;10.02;1.45;;;18.20;99.90;;;;;;5096500;28;20191;-75
2022/11/29 13:16:51;;;;;;;11.50;1.85;;;18.20;99.90;;;;;;5103357;28;20230;-75
2022/11/29 13:19:29;;;;;;;7.68;1.48;;;18.20;99.90;;;;;;5099162;28;20200;-78
2022/11/29 13:22:10;;;;;;;9.10;1.27;;;18.20;99.90;;;;;;5094096;28;20198;-75
2022/11/29 13:24:45;;;;;;;6.45;1.30;;;18.20;99.90;;;;;;5097292;28;20752;-76
2022/11/29 13:27:19;;;;;;;9.40;1.60;;;18.20;99.90;;;;;;5095256;28;20637;-74
2022/11/29 13:29:51;;;;;;;11.00;1.50;;;18.20;99.90;;;;;;5086771;28;20188;-75
2022/11/29 13:32:33;;;;;;;13.60;1.80;;;18.20;99.90;;;;;;5097004;28;20212;-75
2022/11/29 13:35:10;;;;;;;10.13;1.52;;;18.20;99.90;;;;;;5097144;28;20196;-75
2022/11/29 13:37:48;;;;;;;14.93;1.88;;;18.20;99.90;;;;;;5101133;28;20215;-75
2022/11/29 13:40:26;;;;;;;8.35;1.45;;;18.20;99.90;;;;;;5088722;28;20655;-77
2022/11/29 13:43:04;;;;;;;10.88;1.67;;;18.20;99.90;;;;;;5101137;28;20192;-75
2022/11/29 13:45:43;;;;;;;13.13;1.73;;;18.20;99.90;;;;;;5099593;28;20188;-75
2022/11/29 13:48:36;;;;;;;16.92;2.15;;;18.20;99.90;;;;;;5098264;28;20191;-75
2022/11/29 13:51:31;;;;;;;11.38;1.63;;;18.10;99.90;;;;;;5087562;28;20208;-76
2022/11/29 13:54:07;;;;;;;9.18;1.90;;;18.10;99.90;;;;;;5097433;28;20639;-76
2022/11/29 13:56:45;;;;;;;12.68;1.83;;;18.10;99.90;;;;;;5090283;28;20271;-76